Holderness, New Hampshire
Current Conditions -  °F | °C
As of 7:15 PM on Friday 24 Oct 2014 (Local Time) from K1P1 Reporting Station
Overcast Overcast  
Wind Chill: 42°   Ceiling: 2500
Heat Index: 46°   Visibility: 10mi
Dew Point: 44°   Wind: 8mph
Humidity: 94%   Direction: 280°W
Pressure: 29.73"   Gusts: 16mph
Location:  43.73°N, 71.59°W
Report Text: K1P1 242315Z AUTO 28007G14KT 10SM OVC025 08/07 A2973 RMK AO2 T00770068
Loading
Personal Weather Stations






























Interactive Weather Map
Tropical Storm Tracking
New forecast layout! Learn more

10-Day Weather Forecast

Advertisements
Track Severe Weather on mobile